Time;durP1;ratioP1;P1;durP2;ratioP2;P2;SDS_P1;SDS_P2;PMS_P1;PMS_P2;Temp;Humidity;BMP_temperature;BMP_pressure;BME280_temperature;BME280_humidity;BME280_pressure;Samples;Min_cycle;Max_cycle;Signal;HPM_P1;HPM_P2
2022/09/18 00:01:08;;;;;;;0.00;0.00;;;;;;;;;;5012092;28;20124;-80
2022/09/18 00:03:34;;;;;;;0.00;0.00;;;;;;;;;;5011330;28;20454;-80
2022/09/18 00:06:06;;;;;;;0.00;0.00;;;;;;;;;;4995693;28;20133;-80
2022/09/18 00:08:32;;;;;;;0.00;0.00;;;;;;;;;;4995529;28;20401;-80
2022/09/18 00:10:58;;;;;;;0.00;0.00;;;;;;;;;;5011948;28;20042;-80
2022/09/18 00:13:24;;;;;;;0.00;0.00;;;;;;;;;;4995393;28;20033;-80
2022/09/18 00:15:54;;;;;;;0.00;0.00;;;;;;;;;;5012028;28;20497;-80
2022/09/18 00:18:20;;;;;;;0.00;0.00;;;;;;;;;;5011956;28;20489;-81
2022/09/18 00:20:46;;;;;;;0.00;0.00;;;;;;;;;;5012005;28;20046;-80
2022/09/18 00:23:12;;;;;;;0.00;0.00;;;;;;;;;;5011583;28;20092;-80
2022/09/18 00:25:38;;;;;;;0.00;0.00;;;;;;;;;;5011744;28;20045;-80
2022/09/18 00:28:04;;;;;;;0.00;0.00;;;;;;;;;;4995478;28;20045;-80
2022/09/18 00:30:30;;;;;;;0.00;0.00;;;;;;;;;;5011780;28;20113;-80
2022/09/18 00:32:56;;;;;;;0.00;0.00;;;;;;;;;;5011622;28;20042;-80
2022/09/18 00:35:22;;;;;;;0.00;0.00;;;;;;;;;;5011778;28;20057;-80
2022/09/18 00:37:47;;;;;;;0.00;0.00;;;;;;;;;;5011571;28;20252;-80
2022/09/18 00:40:15;;;;;;;0.00;0.00;;;;;;;;;;4995512;28;20045;-80
2022/09/18 00:42:41;;;;;;;0.00;0.00;;;;;;;;;;5011762;28;20085;-80
2022/09/18 00:45:09;;;;;;;0.00;0.00;;;;;;;;;;5011562;28;20512;-80
2022/09/18 00:47:38;;;;;;;0.00;0.00;;;;;;;;;;5011414;28;20038;-80
2022/09/18 00:50:12;;;;;;;0.00;0.00;;;;;;;;;;5011913;28;20038;-80
2022/09/18 00:52:44;;;;;;;0.00;0.00;;;;;;;;;;5011364;28;20033;-81
2022/09/18 00:55:11;;;;;;;0.00;0.00;;;;;;;;;;5011509;28;20045;-81
2022/09/18 00:57:40;;;;;;;0.00;0.00;;;;;;;;;;5011397;28;20049;-81
2022/09/18 01:00:13;;;;;;;0.00;0.00;;;;;;;;;;5011519;28;20506;-80
2022/09/18 01:02:40;;;;;;;0.00;0.00;;;;;;;;;;5011414;28;20050;-81
2022/09/18 01:05:07;;;;;;;0.00;0.00;;;;;;;;;;4994924;28;20046;-81
2022/09/18 01:07:52;;;;;;;0.00;0.00;;;;;;;;;;5011139;28;20054;-81
2022/09/18 01:10:27;;;;;;;0.00;0.00;;;;;;;;;;5011507;28;20477;-80
2022/09/18 01:13:01;;;;;;;0.00;0.00;;;;;;;;;;5011243;28;20112;-80
2022/09/18 01:15:27;;;;;;;0.00;0.00;;;;;;;;;;5013406;28;20049;-80
2022/09/18 01:17:53;;;;;;;0.00;0.00;;;;;;;;;;5015141;28;20037;-80
2022/09/18 01:20:33;;;;;;;0.57;0.57;;;;;;;;;;5015101;28;20500;-80
2022/09/18 01:23:18;;;;;;;0.00;0.00;;;;;;;;;;5015050;28;20041;-80
2022/09/18 01:25:54;;;;;;;0.00;0.00;;;;;;;;;;5015223;28;20100;-80
2022/09/18 01:28:24;;;;;;;0.00;0.00;;;;;;;;;;4998440;28;20064;-80
2022/09/18 01:30:51;;;;;;;0.00;0.00;;;;;;;;;;5015108;28;20413;-80
2022/09/18 01:33:20;;;;;;;0.00;0.00;;;;;;;;;;5014537;28;20042;-81
2022/09/18 01:35:49;;;;;;;0.00;0.00;;;;;;;;;;5014893;28;20444;-80
2022/09/18 01:38:19;;;;;;;0.00;0.00;;;;;;;;;;5014509;28;20053;-80
2022/09/18 01:40:51;;;;;;;0.00;0.00;;;;;;;;;;5015017;28;20037;-80
2022/09/18 01:43:18;;;;;;;0.00;0.00;;;;;;;;;;5014533;28;20401;-80
2022/09/18 01:45:45;;;;;;;0.00;0.00;;;;;;;;;;5014601;28;20497;-80
2022/09/18 01:48:14;;;;;;;0.00;0.00;;;;;;;;;;4998123;28;20473;-80
2022/09/18 01:50:44;;;;;;;0.00;0.00;;;;;;;;;;4998100;28;20045;-80
2022/09/18 01:53:19;;;;;;;0.00;0.00;;;;;;;;;;5014527;28;20456;-80
2022/09/18 01:55:48;;;;;;;0.00;0.00;;;;;;;;;;5014425;28;20037;-80
2022/09/18 01:58:19;;;;;;;0.00;0.00;;;;;;;;;;5014161;28;20049;-80
2022/09/18 02:00:58;;;;;;;0.00;0.00;;;;;;;;;;5014724;28;20068;-81
2022/09/18 02:03:27;;;;;;;0.00;0.00;;;;;;;;;;5013990;28;21988;-80
2022/09/18 02:05:59;;;;;;;0.00;0.00;;;;;;;;;;5014056;28;20371;-81
2022/09/18 02:08:31;;;;;;;0.00;0.00;;;;;;;;;;5013928;28;20573;-81
2022/09/18 02:11:00;;;;;;;0.00;0.00;;;;;;;;;;5014116;28;20045;-81
2022/09/18 02:13:29;;;;;;;0.00;0.00;;;;;;;;;;5013885;28;20053;-81
2022/09/18 02:15:58;;;;;;;0.00;0.00;;;;;;;;;;5013964;28;20038;-81
2022/09/18 02:18:27;;;;;;;0.00;0.00;;;;;;;;;;5014078;28;20048;-81
2022/09/18 02:20:54;;;;;;;0.00;0.00;;;;;;;;;;4997673;28;20100;-81
2022/09/18 02:23:20;;;;;;;0.00;0.00;;;;;;;;;;5013548;28;20133;-81
2022/09/18 02:25:52;;;;;;;0.00;0.00;;;;;;;;;;5013358;28;20037;-81
2022/09/18 02:28:19;;;;;;;0.00;0.00;;;;;;;;;;5013597;28;20046;-80
2022/09/18 02:30:46;;;;;;;0.00;0.00;;;;;;;;;;5013675;28;20389;-81
2022/09/18 02:33:31;;;;;;;0.00;0.00;;;;;;;;;;5013506;28;20095;-80
2022/09/18 02:36:10;;;;;;;0.00;0.00;;;;;;;;;;5013698;28;20507;-80
2022/09/18 02:38:53;;;;;;;0.00;0.00;;;;;;;;;;5013470;28;20092;-80
2022/09/18 02:41:31;;;;;;;0.00;0.00;;;;;;;;;;5013615;28;20044;-80
2022/09/18 02:44:01;;;;;;;0.00;0.00;;;;;;;;;;5013335;28;20088;-80
2022/09/18 02:46:41;;;;;;;0.00;0.00;;;;;;;;;;5013489;28;20076;-80
2022/09/18 02:49:13;;;;;;;0.00;0.00;;;;;;;;;;5014621;28;20521;-80
2022/09/18 02:51:45;;;;;;;0.00;0.00;;;;;;;;;;5013528;28;20038;-80
2022/09/18 02:54:32;;;;;;;0.00;0.00;;;;;;;;;;5013138;28;20092;-80
2022/09/18 02:57:09;;;;;;;0.00;0.00;;;;;;;;;;5013202;28;20045;-80
2022/09/18 02:59:41;;;;;;;0.00;0.00;;;;;;;;;;5013366;28;20129;-80
2022/09/18 03:02:07;;;;;;;0.00;0.00;;;;;;;;;;5013084;28;20095;-80
2022/09/18 03:04:33;;;;;;;0.00;0.00;;;;;;;;;;4996542;28;20405;-80
2022/09/18 03:06:59;;;;;;;0.00;0.00;;;;;;;;;;5012855;28;20064;-81
2022/09/18 03:09:25;;;;;;;0.00;0.00;;;;;;;;;;5012827;28;20042;-81
2022/09/18 03:11:52;;;;;;;0.00;0.00;;;;;;;;;;5012944;28;20045;-81
2022/09/18 03:14:19;;;;;;;0.00;0.00;;;;;;;;;;5012581;28;20120;-80
2022/09/18 03:16:45;;;;;;;0.00;0.00;;;;;;;;;;5013195;28;20107;-80
2022/09/18 03:19:13;;;;;;;0.00;0.00;;;;;;;;;;5012688;28;20042;-80
2022/09/18 03:21:39;;;;;;;0.00;0.00;;;;;;;;;;5013106;28;20041;-80
2022/09/18 03:24:05;;;;;;;0.00;0.00;;;;;;;;;;5012463;28;20038;-81
2022/09/18 03:26:31;;;;;;;0.00;0.00;;;;;;;;;;5012706;28;20096;-81
2022/09/18 03:28:57;;;;;;;0.00;0.00;;;;;;;;;;5012594;28;20038;-80
2022/09/18 03:31:23;;;;;;;0.00;0.00;;;;;;;;;;5012575;28;20038;-80
2022/09/18 03:33:49;;;;;;;0.00;0.00;;;;;;;;;;5012285;28;20049;-81
2022/09/18 03:36:16;;;;;;;0.00;0.00;;;;;;;;;;5012535;28;20045;-80
2022/09/18 03:38:42;;;;;;;0.00;0.00;;;;;;;;;;4995433;28;20045;-80
2022/09/18 03:41:08;;;;;;;0.00;0.00;;;;;;;;;;5012632;28;20111;-81
2022/09/18 03:43:34;;;;;;;0.00;0.00;;;;;;;;;;5012192;28;20042;-80
2022/09/18 03:46:00;;;;;;;0.00;0.00;;;;;;;;;;5012402;28;20052;-80
2022/09/18 03:48:27;;;;;;;0.00;0.00;;;;;;;;;;5012574;28;20057;-81
2022/09/18 03:50:52;;;;;;;0.00;0.00;;;;;;;;;;5012065;28;20034;-81
2022/09/18 03:53:18;;;;;;;0.00;0.00;;;;;;;;;;5012154;28;20045;-81
2022/09/18 03:55:45;;;;;;;0.00;0.00;;;;;;;;;;5012044;28;20374;-80
2022/09/18 03:58:12;;;;;;;0.00;0.00;;;;;;;;;;5012136;28;20449;-81
2022/09/18 04:00:38;;;;;;;0.00;0.00;;;;;;;;;;5012107;28;20033;-81
2022/09/18 04:03:04;;;;;;;0.00;0.00;;;;;;;;;;5012220;28;20042;-81
2022/09/18 04:05:30;;;;;;;0.00;0.00;;;;;;;;;;4997315;28;20042;-80
2022/09/18 04:07:56;;;;;;;0.00;0.00;;;;;;;;;;5015474;28;20058;-81
2022/09/18 04:10:22;;;;;;;0.00;0.00;;;;;;;;;;4998794;28;20546;-81
2022/09/18 04:12:48;;;;;;;0.00;0.00;;;;;;;;;;5015241;28;20037;-80
2022/09/18 04:15:14;;;;;;;0.00;0.00;;;;;;;;;;4998825;28;20044;-81
2022/09/18 04:17:41;;;;;;;0.00;0.00;;;;;;;;;;4998772;28;20073;-80
2022/09/18 04:20:08;;;;;;;0.00;0.00;;;;;;;;;;5014924;28;20045;-81
2022/09/18 04:22:34;;;;;;;0.00;0.00;;;;;;;;;;4998736;28;20041;-80
2022/09/18 04:25:00;;;;;;;0.00;0.00;;;;;;;;;;5032779;28;20044;-81
2022/09/18 04:27:26;;;;;;;0.00;0.00;;;;;;;;;;5015148;28;20054;-80
2022/09/18 04:29:52;;;;;;;0.00;0.00;;;;;;;;;;5014895;28;20067;-80
2022/09/18 04:32:18;;;;;;;0.00;0.00;;;;;;;;;;4998756;28;20069;-81
2022/09/18 04:34:44;;;;;;;0.00;0.00;;;;;;;;;;5014826;28;20062;-81
2022/09/18 04:37:11;;;;;;;0.00;0.00;;;;;;;;;;5015271;28;20072;-80
2022/09/18 04:39:37;;;;;;;0.00;0.00;;;;;;;;;;5014843;28;20033;-80
2022/09/18 04:42:03;;;;;;;0.00;0.00;;;;;;;;;;5014902;28;20488;-81
2022/09/18 04:44:29;;;;;;;0.00;0.00;;;;;;;;;;5014555;28;20496;-81
2022/09/18 04:46:56;;;;;;;0.00;0.00;;;;;;;;;;5031510;28;20057;-81
2022/09/18 04:49:22;;;;;;;0.00;0.00;;;;;;;;;;5034703;28;20045;-81
2022/09/18 04:51:48;;;;;;;0.00;0.00;;;;;;;;;;5018888;28;20124;-80
2022/09/18 04:54:14;;;;;;;0.00;0.00;;;;;;;;;;5018817;28;20220;-80
2022/09/18 04:56:42;;;;;;;0.00;0.00;;;;;;;;;;5036360;28;20049;-81
2022/09/18 04:59:08;;;;;;;0.00;0.00;;;;;;;;;;5002441;28;20041;-80
2022/09/18 05:01:34;;;;;;;0.00;0.00;;;;;;;;;;5002135;28;20030;-82
2022/09/18 05:04:00;;;;;;;0.00;0.00;;;;;;;;;;5002136;28;20045;-82
2022/09/18 05:06:26;;;;;;;0.00;0.00;;;;;;;;;;5018131;28;20061;-82
2022/09/18 05:08:52;;;;;;;0.00;0.00;;;;;;;;;;5018456;28;20081;-82
2022/09/18 05:11:18;;;;;;;0.00;0.00;;;;;;;;;;5018344;28;20145;-82
2022/09/18 05:13:47;;;;;;;0.00;0.00;;;;;;;;;;5018399;28;20553;-82
2022/09/18 05:16:13;;;;;;;0.00;0.00;;;;;;;;;;5018311;28;20046;-82
2022/09/18 05:18:39;;;;;;;0.00;0.00;;;;;;;;;;5018356;28;20055;-82
2022/09/18 05:21:05;;;;;;;0.00;0.00;;;;;;;;;;5018139;28;20053;-82
2022/09/18 05:23:33;;;;;;;0.00;0.00;;;;;;;;;;5018189;28;20196;-82
2022/09/18 05:25:59;;;;;;;0.00;0.00;;;;;;;;;;5018339;28;20043;-82
2022/09/18 05:28:25;;;;;;;0.00;0.00;;;;;;;;;;5001751;28;20033;-82
2022/09/18 05:30:51;;;;;;;0.00;0.00;;;;;;;;;;5017895;28;20044;-82
2022/09/18 05:33:17;;;;;;;0.00;0.00;;;;;;;;;;5018136;28;20037;-82
2022/09/18 05:35:43;;;;;;;0.00;0.00;;;;;;;;;;5017906;28;20077;-82
2022/09/18 05:38:10;;;;;;;0.00;0.00;;;;;;;;;;5001614;28;20084;-82
2022/09/18 05:40:37;;;;;;;0.00;0.00;;;;;;;;;;5017922;28;20041;-83
2022/09/18 05:43:04;;;;;;;0.00;0.00;;;;;;;;;;5017926;28;20592;-82
2022/09/18 05:45:30;;;;;;;0.00;0.00;;;;;;;;;;5017479;28;20042;-83
2022/09/18 05:48:00;;;;;;;0.00;0.00;;;;;;;;;;5017887;28;20041;-83
2022/09/18 05:50:27;;;;;;;0.00;0.00;;;;;;;;;;5001486;28;20037;-82
2022/09/18 05:53:07;;;;;;;0.00;0.00;;;;;;;;;;5017750;28;20074;-82
2022/09/18 05:55:33;;;;;;;0.00;0.00;;;;;;;;;;5017355;28;20128;-82
2022/09/18 05:58:00;;;;;;;0.00;0.00;;;;;;;;;;5017833;28;20045;-85
2022/09/18 06:00:27;;;;;;;0.00;0.00;;;;;;;;;;5016594;28;20046;-82
2022/09/18 06:02:57;;;;;;;0.00;0.00;;;;;;;;;;5017608;28;20048;-82
2022/09/18 06:05:24;;;;;;;0.00;0.00;;;;;;;;;;5016872;28;20057;-83
2022/09/18 06:07:50;;;;;;;0.00;0.00;;;;;;;;;;5017739;28;20450;-83
2022/09/18 06:10:17;;;;;;;0.00;0.00;;;;;;;;;;5035303;28;20033;-82
2022/09/18 06:12:43;;;;;;;0.00;0.00;;;;;;;;;;5017758;28;20303;-83
2022/09/18 06:15:09;;;;;;;0.00;0.00;;;;;;;;;;5000689;28;20532;-82
2022/09/18 06:17:35;;;;;;;0.00;0.00;;;;;;;;;;5000463;28;20045;-83
2022/09/18 06:20:01;;;;;;;0.00;0.00;;;;;;;;;;5016835;28;20069;-82
2022/09/18 06:22:27;;;;;;;0.00;0.00;;;;;;;;;;5016671;28;20045;-83
2022/09/18 06:24:53;;;;;;;0.00;0.00;;;;;;;;;;5016677;28;20118;-84
2022/09/18 06:27:19;;;;;;;0.00;0.00;;;;;;;;;;5016656;28;20479;-83
2022/09/18 06:29:45;;;;;;;0.00;0.00;;;;;;;;;;5016824;28;20080;-83
2022/09/18 06:32:11;;;;;;;0.00;0.00;;;;;;;;;;5016225;28;20077;-83
2022/09/18 06:34:37;;;;;;;0.00;0.00;;;;;;;;;;5016610;28;20041;-83
2022/09/18 06:37:03;;;;;;;0.00;0.00;;;;;;;;;;5016223;28;20045;-84
2022/09/18 06:39:29;;;;;;;0.00;0.00;;;;;;;;;;5000196;28;20047;-83
2022/09/18 06:41:55;;;;;;;0.00;0.00;;;;;;;;;;5016192;28;20049;-83
2022/09/18 06:44:21;;;;;;;0.00;0.00;;;;;;;;;;5016222;28;20191;-83
2022/09/18 06:46:47;;;;;;;0.00;0.00;;;;;;;;;;5016194;28;20060;-82
2022/09/18 06:49:13;;;;;;;0.00;0.00;;;;;;;;;;4999960;28;20034;-82
2022/09/18 06:51:39;;;;;;;0.00;0.00;;;;;;;;;;5016041;28;20037;-83
2022/09/18 06:54:05;;;;;;;0.00;0.00;;;;;;;;;;5016572;28;20041;-83
2022/09/18 06:56:31;;;;;;;0.00;0.00;;;;;;;;;;5015787;28;20079;-83
2022/09/18 06:58:57;;;;;;;0.00;0.00;;;;;;;;;;5016052;28;20507;-83
2022/09/18 07:01:23;;;;;;;0.00;0.00;;;;;;;;;;5015859;28;20042;-83
2022/09/18 07:03:49;;;;;;;0.00;0.00;;;;;;;;;;5015859;28;20045;-83
2022/09/18 07:06:15;;;;;;;0.00;0.00;;;;;;;;;;5015411;28;20057;-83
2022/09/18 07:08:41;;;;;;;0.00;0.00;;;;;;;;;;5000663;28;20080;-83
2022/09/18 07:11:07;;;;;;;0.00;0.00;;;;;;;;;;5016066;28;20037;-83
2022/09/18 07:13:36;;;;;;;0.00;0.00;;;;;;;;;;5016042;28;20510;-83
2022/09/18 07:16:02;;;;;;;0.00;0.00;;;;;;;;;;4999699;28;20111;-83
2022/09/18 07:18:28;;;;;;;0.00;0.00;;;;;;;;;;5016199;28;20041;-83
2022/09/18 07:20:54;;;;;;;0.00;0.00;;;;;;;;;;5015873;28;20206;-82
2022/09/18 07:23:20;;;;;;;0.00;0.00;;;;;;;;;;5015892;28;20312;-83
2022/09/18 07:25:46;;;;;;;0.00;0.00;;;;;;;;;;5015973;28;20041;-83
2022/09/18 07:28:12;;;;;;;0.00;0.00;;;;;;;;;;4999386;28;20042;-83
2022/09/18 07:30:39;;;;;;;0.00;0.00;;;;;;;;;;5015860;28;20041;-83
2022/09/18 07:33:05;;;;;;;0.00;0.00;;;;;;;;;;4999244;28;20045;-83
2022/09/18 07:35:31;;;;;;;0.00;0.00;;;;;;;;;;5015659;28;20041;-83
2022/09/18 07:37:58;;;;;;;0.00;0.00;;;;;;;;;;5016543;28;20136;-84
2022/09/18 07:40:24;;;;;;;0.00;0.00;;;;;;;;;;5015812;28;20249;-84
2022/09/18 07:42:50;;;;;;;0.00;0.00;;;;;;;;;;5015562;28;20045;-83
2022/09/18 07:45:16;;;;;;;0.00;0.00;;;;;;;;;;5015578;28;20043;-83
2022/09/18 07:47:42;;;;;;;0.00;0.00;;;;;;;;;;5015388;28;20412;-83
2022/09/18 07:50:14;;;;;;;0.00;0.00;;;;;;;;;;5015700;28;20125;-83
2022/09/18 07:52:47;;;;;;;0.00;0.00;;;;;;;;;;5015322;28;20045;-83
2022/09/18 07:55:13;;;;;;;0.00;0.00;;;;;;;;;;5014500;28;20041;-83
2022/09/18 07:57:39;;;;;;;0.00;0.00;;;;;;;;;;5015147;28;20450;-83
2022/09/18 08:00:06;;;;;;;0.00;0.00;;;;;;;;;;5015338;28;20041;-83
2022/09/18 08:02:32;;;;;;;0.00;0.00;;;;;;;;;;4998825;28;20084;-82
2022/09/18 08:04:58;;;;;;;0.00;0.00;;;;;;;;;;5016050;28;20065;-83
2022/09/18 08:07:24;;;;;;;0.00;0.00;;;;;;;;;;5014992;28;20054;-83
2022/09/18 08:09:50;;;;;;;0.00;0.00;;;;;;;;;;5015741;28;20045;-83
2022/09/18 08:12:16;;;;;;;0.00;0.00;;;;;;;;;;5015802;28;20490;-83
2022/09/18 08:14:42;;;;;;;0.00;0.00;;;;;;;;;;5016441;28;20049;-83
2022/09/18 08:17:08;;;;;;;0.00;0.00;;;;;;;;;;5015750;28;20043;-83
2022/09/18 08:19:34;;;;;;;0.00;0.00;;;;;;;;;;4999331;28;20365;-84
2022/09/18 08:22:00;;;;;;;0.00;0.00;;;;;;;;;;5015672;28;20048;-84
2022/09/18 08:24:26;;;;;;;0.00;0.00;;;;;;;;;;5014933;28;20399;-84
2022/09/18 08:26:53;;;;;;;0.00;0.00;;;;;;;;;;5014982;28;20087;-84
2022/09/18 08:29:19;;;;;;;0.00;0.00;;;;;;;;;;5015372;28;20449;-84
2022/09/18 08:31:46;;;;;;;0.00;0.00;;;;;;;;;;5014991;28;20042;-84
2022/09/18 08:34:12;;;;;;;0.00;0.00;;;;;;;;;;5014855;28;20052;-83
2022/09/18 08:36:38;;;;;;;0.00;0.00;;;;;;;;;;4998213;28;20483;-83
2022/09/18 08:39:05;;;;;;;0.00;0.00;;;;;;;;;;5015387;28;20046;-84
2022/09/18 08:41:37;;;;;;;0.00;0.00;;;;;;;;;;4998488;28;20427;-83
2022/09/18 08:44:06;;;;;;;0.00;0.00;;;;;;;;;;4998553;28;20041;-83
2022/09/18 08:46:35;;;;;;;0.00;0.00;;;;;;;;;;4998559;28;20034;-83
2022/09/18 08:49:01;;;;;;;0.00;0.00;;;;;;;;;;5014839;28;20327;-83
2022/09/18 08:51:33;;;;;;;0.00;0.00;;;;;;;;;;5014989;28;20044;-83
2022/09/18 08:54:07;;;;;;;0.00;0.00;;;;;;;;;;5014606;28;20128;-82
2022/09/18 08:56:34;;;;;;;0.00;0.00;;;;;;;;;;5015073;28;20397;-83
2022/09/18 08:59:03;;;;;;;0.00;0.00;;;;;;;;;;4998446;28;20049;-83
2022/09/18 09:01:40;;;;;;;0.00;0.00;;;;;;;;;;5014816;28;20049;-84
2022/09/18 09:04:10;;;;;;;0.00;0.00;;;;;;;;;;5014396;28;20485;-83
2022/09/18 09:06:39;;;;;;;0.00;0.00;;;;;;;;;;5014479;28;20049;-85
2022/09/18 09:09:24;;;;;;;0.00;0.00;;;;;;;;;;5014536;28;20041;-84
2022/09/18 09:12:00;;;;;;;0.00;0.00;;;;;;;;;;5014704;28;20412;-84
2022/09/18 09:14:33;;;;;;;0.00;0.00;;;;;;;;;;5014857;28;20056;-84
2022/09/18 09:17:02;;;;;;;0.00;0.00;;;;;;;;;;5014501;28;20399;-84
2022/09/18 09:19:30;;;;;;;0.00;0.00;;;;;;;;;;5014631;28;20037;-83
2022/09/18 09:22:14;;;;;;;0.00;0.00;;;;;;;;;;4998879;28;20374;-83
2022/09/18 09:24:47;;;;;;;0.00;0.00;;;;;;;;;;4998779;28;20045;-84
2022/09/18 09:27:48;;;;;;;0.00;0.00;;;;;;;;;;5015695;28;20515;-83
2022/09/18 09:30:18;;;;;;;0.00;0.00;;;;;;;;;;4955605;28;20039;-83
2022/09/18 09:32:49;;;;;;;0.00;0.00;;;;;;;;;;5005995;28;20041;-86
2022/09/18 09:35:30;;;;;;;0.00;0.00;;;;;;;;;;5014813;28;20401;-86
2022/09/18 09:37:59;;;;;;;0.00;0.00;;;;;;;;;;5001655;28;20041;-84
2022/09/18 09:40:34;;;;;;;0.00;0.00;;;;;;;;;;5018272;28;20041;-84
2022/09/18 09:43:03;;;;;;;0.00;0.00;;;;;;;;;;5018064;28;20037;-83
2022/09/18 09:45:44;;;;;;;0.00;0.00;;;;;;;;;;5018723;28;20049;-84
2022/09/18 09:48:16;;;;;;;0.00;0.00;;;;;;;;;;5001290;28;20045;-83
2022/09/18 09:51:00;;;;;;;0.00;0.00;;;;;;;;;;5018067;28;20099;-83
2022/09/18 09:53:27;;;;;;;0.00;0.00;;;;;;;;;;5001003;28;20045;-83
2022/09/18 09:55:59;;;;;;;0.00;0.00;;;;;;;;;;5017681;28;20045;-83
2022/09/18 09:58:32;;;;;;;0.00;0.00;;;;;;;;;;5001047;28;20044;-83
2022/09/18 10:01:21;;;;;;;0.00;0.00;;;;;;;;;;5001176;28;20469;-84
2022/09/18 10:03:59;;;;;;;0.00;0.00;;;;;;;;;;5017444;28;20389;-84
2022/09/18 10:06:28;;;;;;;0.00;0.00;;;;;;;;;;5017443;28;20095;-87
2022/09/18 10:09:01;;;;;;;0.00;0.00;;;;;;;;;;5017313;28;20045;-83
2022/09/18 10:11:27;;;;;;;0.00;0.00;;;;;;;;;;5001439;28;20041;-83
2022/09/18 10:13:58;;;;;;;0.00;0.00;;;;;;;;;;5000871;28;20450;-83
2022/09/18 10:16:27;;;;;;;0.00;0.00;;;;;;;;;;5001276;28;20404;-83
2022/09/18 10:18:53;;;;;;;0.00;0.00;;;;;;;;;;5016929;28;20046;-83
2022/09/18 10:21:20;;;;;;;0.00;0.00;;;;;;;;;;5017274;28;20042;-83
2022/09/18 10:23:53;;;;;;;0.00;0.00;;;;;;;;;;5017095;28;20468;-83
2022/09/18 10:26:32;;;;;;;0.00;0.00;;;;;;;;;;5017323;28;20052;-83
2022/09/18 10:28:59;;;;;;;0.00;0.00;;;;;;;;;;5016976;28;20496;-84
2022/09/18 10:31:44;;;;;;;0.00;0.00;;;;;;;;;;5017084;28;20054;-84
2022/09/18 10:34:30;;;;;;;0.00;0.00;;;;;;;;;;5000708;28;20041;-83
2022/09/18 10:36:56;;;;;;;0.00;0.00;;;;;;;;;;5000929;28;20566;-83
2022/09/18 10:39:31;;;;;;;0.00;0.00;;;;;;;;;;5016728;28;20041;-83
2022/09/18 10:41:58;;;;;;;0.00;0.00;;;;;;;;;;5016894;28;20037;-83
2022/09/18 10:44:26;;;;;;;0.00;0.00;;;;;;;;;;5000190;28;20551;-83
2022/09/18 10:47:03;;;;;;;0.00;0.00;;;;;;;;;;5016420;28;20040;-84
2022/09/18 10:49:31;;;;;;;0.00;0.00;;;;;;;;;;5016879;28;20046;-84
2022/09/18 10:52:25;;;;;;;0.00;0.00;;;;;;;;;;5016736;28;20041;-89
2022/09/18 10:54:57;;;;;;;0.00;0.00;;;;;;;;;;5014336;28;20381;-85
2022/09/18 10:57:34;;;;;;;0.00;0.00;;;;;;;;;;5016707;28;20047;-84
2022/09/18 11:00:05;;;;;;;0.00;0.00;;;;;;;;;;5015543;28;20045;-84
2022/09/18 11:02:38;;;;;;;0.00;0.00;;;;;;;;;;5000022;28;20065;-85
2022/09/18 11:05:04;;;;;;;0.00;0.00;;;;;;;;;;5016340;28;20382;-84
2022/09/18 11:07:30;;;;;;;0.00;0.00;;;;;;;;;;5016255;28;20562;-84
2022/09/18 11:09:56;;;;;;;0.00;0.00;;;;;;;;;;4999797;28;20041;-84
2022/09/18 11:12:27;;;;;;;0.00;0.00;;;;;;;;;;5016245;28;20037;-85
2022/09/18 11:15:02;;;;;;;0.00;0.00;;;;;;;;;;5016068;28;20094;-84
2022/09/18 11:17:30;;;;;;;0.00;0.00;;;;;;;;;;4999838;28;20049;-83
2022/09/18 11:19:57;;;;;;;0.00;0.00;;;;;;;;;;5015874;28;20475;-84
2022/09/18 11:22:35;;;;;;;0.00;0.00;;;;;;;;;;4999962;28;20393;-84
2022/09/18 11:25:14;;;;;;;0.00;0.00;;;;;;;;;;5015727;28;20045;-85
2022/09/18 11:27:44;;;;;;;0.00;0.00;;;;;;;;;;5016073;28;20096;-85
2022/09/18 11:30:14;;;;;;;0.00;0.00;;;;;;;;;;4999451;28;20072;-85
2022/09/18 11:32:40;;;;;;;0.00;0.00;;;;;;;;;;5015675;28;20492;-84
2022/09/18 11:35:12;;;;;;;0.00;0.00;;;;;;;;;;5015892;28;20088;-85
2022/09/18 11:37:58;;;;;;;0.00;0.00;;;;;;;;;;5016383;28;20392;-85
2022/09/18 11:40:28;;;;;;;0.00;0.00;;;;;;;;;;4999294;28;20271;-86
2022/09/18 11:42:54;;;;;;;0.00;0.00;;;;;;;;;;5015894;28;20124;-85
2022/09/18 11:45:38;;;;;;;0.00;0.00;;;;;;;;;;5015295;28;20572;-85
2022/09/18 11:48:37;;;;;;;0.00;0.00;;;;;;;;;;5015374;28;20092;-84
2022/09/18 11:51:05;;;;;;;0.00;0.00;;;;;;;;;;4984589;28;20469;-86
2022/09/18 11:53:40;;;;;;;0.00;0.00;;;;;;;;;;5015693;28;20120;-82
2022/09/18 11:56:06;;;;;;;0.00;0.00;;;;;;;;;;5014135;28;20033;-83
2022/09/18 11:58:38;;;;;;;0.00;0.00;;;;;;;;;;5014816;28;20037;-83
2022/09/18 12:01:23;;;;;;;0.00;0.00;;;;;;;;;;5015430;28;20033;-84
2022/09/18 12:03:53;;;;;;;0.00;0.00;;;;;;;;;;5015013;28;20041;-82
2022/09/18 12:06:27;;;;;;;0.00;0.00;;;;;;;;;;4995727;28;20085;-82
2022/09/18 12:08:59;;;;;;;0.00;0.00;;;;;;;;;;4995721;28;20045;-81
2022/09/18 12:11:31;;;;;;;0.00;0.00;;;;;;;;;;5013293;28;20092;-82
2022/09/18 12:14:16;;;;;;;0.00;0.00;;;;;;;;;;5011854;28;20072;-82
2022/09/18 12:16:45;;;;;;;0.00;0.00;;;;;;;;;;5011994;28;20078;-81
2022/09/18 12:19:17;;;;;;;0.00;0.00;;;;;;;;;;4995336;28;20049;-81
2022/09/18 12:21:47;;;;;;;0.00;0.00;;;;;;;;;;5011907;28;20049;-81
2022/09/18 12:24:14;;;;;;;0.00;0.00;;;;;;;;;;5011703;28;20053;-81
2022/09/18 12:26:44;;;;;;;0.00;0.00;;;;;;;;;;5011815;28;20448;-81
2022/09/18 12:29:39;;;;;;;0.00;0.00;;;;;;;;;;5011714;28;20037;-81
2022/09/18 12:32:18;;;;;;;0.00;0.00;;;;;;;;;;4987388;28;20053;-81
2022/09/18 12:34:47;;;;;;;0.00;0.00;;;;;;;;;;4995209;28;20074;-81
2022/09/18 12:37:16;;;;;;;0.00;0.00;;;;;;;;;;5011745;28;20060;-81
2022/09/18 12:39:53;;;;;;;0.00;0.00;;;;;;;;;;5011627;28;20042;-80
2022/09/18 12:42:19;;;;;;;0.00;0.00;;;;;;;;;;5011887;28;20095;-81
2022/09/18 12:44:48;;;;;;;0.00;0.00;;;;;;;;;;5011310;28;20046;-81
2022/09/18 12:47:49;;;;;;;0.00;0.00;;;;;;;;;;5011573;28;20045;-81
2022/09/18 12:50:22;;;;;;;0.00;0.00;;;;;;;;;;4974781;28;20241;-81
2022/09/18 12:52:54;;;;;;;0.00;0.00;;;;;;;;;;5005481;28;20056;-81
2022/09/18 12:55:25;;;;;;;0.00;0.00;;;;;;;;;;5011317;28;20108;-81
2022/09/18 12:58:12;;;;;;;0.00;0.00;;;;;;;;;;4995358;28;20489;-81
2022/09/18 13:00:39;;;;;;;0.00;0.00;;;;;;;;;;5011457;28;20054;-81
2022/09/18 13:03:13;;;;;;;0.00;0.00;;;;;;;;;;5011499;28;20048;-81
2022/09/18 13:05:59;;;;;;;0.00;0.00;;;;;;;;;;5014244;28;20056;-81
2022/09/18 13:08:28;;;;;;;0.00;0.00;;;;;;;;;;5014679;28;20496;-81
2022/09/18 13:10:57;;;;;;;0.00;0.00;;;;;;;;;;5001035;28;20045;-81
2022/09/18 13:13:36;;;;;;;0.00;0.00;;;;;;;;;;5018497;28;20038;-81
2022/09/18 13:16:07;;;;;;;0.00;0.00;;;;;;;;;;5001978;28;20034;-81
2022/09/18 13:18:49;;;;;;;0.00;0.00;;;;;;;;;;5018330;28;20037;-81
2022/09/18 13:21:24;;;;;;;0.00;0.00;;;;;;;;;;5018431;28;20124;-82
2022/09/18 13:23:51;;;;;;;0.00;0.00;;;;;;;;;;5001782;28;20052;-81
2022/09/18 13:26:17;;;;;;;0.00;0.00;;;;;;;;;;5018028;28;20091;-82
2022/09/18 13:28:44;;;;;;;0.00;0.00;;;;;;;;;;5002018;28;20396;-82
2022/09/18 13:31:13;;;;;;;0.00;0.00;;;;;;;;;;5017888;28;20049;-81
2022/09/18 13:33:39;;;;;;;0.00;0.00;;;;;;;;;;5002004;28;20489;-81
2022/09/18 13:36:05;;;;;;;0.00;0.00;;;;;;;;;;5017854;28;20037;-81
2022/09/18 13:38:33;;;;;;;0.00;0.00;;;;;;;;;;5018245;28;20076;-81
2022/09/18 13:41:07;;;;;;;0.00;0.00;;;;;;;;;;5000718;28;20141;-82
2022/09/18 13:43:38;;;;;;;0.00;0.00;;;;;;;;;;5001669;28;20041;-81
2022/09/18 13:46:04;;;;;;;0.00;0.00;;;;;;;;;;5017985;28;20508;-81
2022/09/18 13:48:30;;;;;;;0.00;0.00;;;;;;;;;;5017811;28;20041;-81
2022/09/18 13:51:00;;;;;;;0.00;0.00;;;;;;;;;;5001309;28;20559;-81
2022/09/18 13:53:32;;;;;;;0.00;0.00;;;;;;;;;;5017851;28;20037;-81
2022/09/18 13:55:58;;;;;;;0.00;0.00;;;;;;;;;;5035480;28;20045;-81
2022/09/18 13:58:31;;;;;;;0.00;0.00;;;;;;;;;;5017815;28;20037;-81
2022/09/18 14:00:58;;;;;;;0.00;0.00;;;;;;;;;;5017470;28;20048;-81
2022/09/18 14:03:24;;;;;;;0.00;0.00;;;;;;;;;;5017762;28;20083;-81
2022/09/18 14:05:50;;;;;;;0.00;0.00;;;;;;;;;;5034923;28;20143;-81
2022/09/18 14:08:20;;;;;;;0.00;0.00;;;;;;;;;;5017547;28;20045;-81
2022/09/18 14:10:57;;;;;;;0.00;0.00;;;;;;;;;;5000964;28;20488;-81
2022/09/18 14:13:40;;;;;;;0.00;0.00;;;;;;;;;;5017743;28;20048;-81
2022/09/18 14:16:08;;;;;;;0.00;0.00;;;;;;;;;;5017302;28;20108;-84
2022/09/18 14:18:45;;;;;;;0.00;0.00;;;;;;;;;;5001131;28;20037;-81
2022/09/18 14:21:11;;;;;;;0.00;0.00;;;;;;;;;;5016416;28;20045;-81
2022/09/18 14:23:40;;;;;;;0.00;0.00;;;;;;;;;;5017366;28;20399;-82
2022/09/18 14:26:25;;;;;;;0.00;0.00;;;;;;;;;;5017033;28;20077;-82
2022/09/18 14:28:51;;;;;;;0.00;0.00;;;;;;;;;;5017123;28;20038;-82
2022/09/18 14:31:17;;;;;;;0.00;0.00;;;;;;;;;;5016899;28;20037;-82
2022/09/18 14:33:43;;;;;;;0.00;0.00;;;;;;;;;;5000510;28;20044;-82
2022/09/18 14:36:10;;;;;;;0.00;0.00;;;;;;;;;;5017039;28;20041;-82
2022/09/18 14:38:40;;;;;;;0.00;0.00;;;;;;;;;;5016930;28;20080;-81
2022/09/18 14:41:07;;;;;;;0.00;0.00;;;;;;;;;;5016713;28;20122;-81
2022/09/18 14:43:35;;;;;;;0.00;0.00;;;;;;;;;;5016847;28;20149;-81
2022/09/18 14:46:02;;;;;;;0.00;0.00;;;;;;;;;;5000215;28;20477;-81
2022/09/18 14:48:29;;;;;;;0.00;0.00;;;;;;;;;;5000344;28;20500;-81
2022/09/18 14:51:03;;;;;;;0.00;0.00;;;;;;;;;;5016576;28;20041;-81
2022/09/18 14:53:29;;;;;;;0.00;0.00;;;;;;;;;;5034719;28;20458;-81
2022/09/18 14:56:07;;;;;;;0.00;0.00;;;;;;;;;;5016478;28;20069;-81
2022/09/18 14:58:41;;;;;;;0.00;0.00;;;;;;;;;;5000215;28;20045;-81